Time;durP1;ratioP1;P1;durP2;ratioP2;P2;SDS_P1;SDS_P2;PMS_P1;PMS_P2;Temp;Humidity;BMP_temperature;BMP_pressure;BME280_temperature;BME280_humidity;BME280_pressure;Samples;Min_cycle;Max_cycle;Signal;HPM_P1;HPM_P2
2022/12/11 00:00:57;;;;;;;72.45;27.73;;;;;;;2.35;80.96;100921.00;3578478;40;20546;-64
2022/12/11 00:03:22;;;;;;;70.38;28.92;;;;;;;2.34;80.88;100919.22;3572967;40;20071;-64
2022/12/11 00:05:48;;;;;;;77.43;28.98;;;;;;;2.36;81.07;100920.06;3576252;40;20069;-64
2022/12/11 00:08:14;;;;;;;70.22;26.70;;;;;;;2.39;80.67;100919.13;3573927;40;20463;-64
2022/12/11 00:10:48;;;;;;;71.75;27.52;;;;;;;2.40;81.71;100913.75;3573815;40;20057;-64
2022/12/11 00:13:14;;;;;;;71.63;29.75;;;;;;;2.42;80.85;100911.94;3576641;40;20252;-64
2022/12/11 00:15:39;;;;;;;76.03;28.42;;;;;;;2.42;81.42;100914.59;3574852;40;20383;-64
2022/12/11 00:18:05;;;;;;;68.10;26.58;;;;;;;2.43;81.00;100912.81;3577371;40;20384;-64
2022/12/11 00:20:30;;;;;;;62.67;26.55;;;;;;;2.42;80.59;100916.38;3573007;40;20056;-64
2022/12/11 00:22:56;;;;;;;63.75;26.23;;;;;;;2.35;80.95;100905.06;3575439;40;20048;-64
2022/12/11 00:25:22;;;;;;;68.03;27.63;;;;;;;2.39;80.83;100909.38;3574947;40;20166;-64
2022/12/11 00:27:47;;;;;;;67.10;27.02;;;;;;;2.41;81.56;100910.22;3572455;40;20063;-64
2022/12/11 00:30:13;;;;;;;66.75;27.92;;;;;;;2.41;80.84;100912.88;3574033;40;20059;-64
2022/12/11 00:32:39;;;;;;;70.88;27.45;;;;;;;2.39;80.66;100901.41;3575738;40;20064;-64
2022/12/11 00:35:05;;;;;;;68.47;26.67;;;;;;;2.45;81.07;100911.88;3581897;40;20075;-64
2022/12/11 00:37:31;;;;;;;58.55;25.35;;;;;;;2.47;80.92;100910.03;3562513;40;20372;-64
2022/12/11 00:39:56;;;;;;;63.45;25.05;;;;;;;2.49;80.71;100916.16;3576414;40;20391;-64
2022/12/11 00:42:22;;;;;;;63.85;28.67;;;;;;;2.50;80.68;100911.72;3573344;40;20063;-64
2022/12/11 00:44:47;;;;;;;59.80;26.45;;;;;;;2.52;80.77;100910.78;3573205;40;20305;-64
2022/12/11 00:47:13;;;;;;;70.15;27.73;;;;;;;2.53;81.18;100909.00;3575053;40;20356;-64
2022/12/11 00:49:39;;;;;;;66.00;27.50;;;;;;;2.45;81.05;100897.72;3578350;40;20406;-64
2022/12/11 00:52:04;;;;;;;56.42;24.75;;;;;;;2.47;80.87;100909.16;3578258;40;20053;-64
2022/12/11 00:54:30;;;;;;;63.50;26.27;;;;;;;2.49;80.94;100910.84;3573046;40;20056;-64
2022/12/11 00:56:55;;;;;;;57.75;26.85;;;;;;;2.49;80.55;100908.19;3576060;40;20362;-64
2022/12/11 00:59:21;;;;;;;63.53;27.38;;;;;;;2.51;81.15;100905.53;3577278;40;20097;-64
2022/12/11 01:01:47;;;;;;;62.80;24.95;;;;;;;2.46;80.72;100913.59;3577131;40;20379;-64
2022/12/11 01:04:12;;;;;;;54.70;24.42;;;;;;;2.45;80.46;100895.94;3577414;40;20056;-64
2022/12/11 01:06:38;;;;;;;57.33;24.90;;;;;;;2.47;81.08;100894.09;3578913;40;20063;-64
2022/12/11 01:11:48;;;;;;;52.80;24.55;;;;;;;2.49;80.81;100904.69;3575479;40;20106;-63
2022/12/11 01:14:14;;;;;;;57.28;27.00;;;;;;;2.51;80.68;100901.09;3574428;40;20295;-64
2022/12/11 01:16:40;;;;;;;59.08;24.95;;;;;;;2.54;80.23;100895.69;3574618;40;20052;-64
2022/12/11 01:19:05;;;;;;;56.03;25.25;;;;;;;2.51;80.21;100894.91;3574572;40;20048;-63
2022/12/11 01:21:31;;;;;;;52.78;24.77;;;;;;;2.54;80.65;100901.00;3573189;40;20060;-64
2022/12/11 01:23:57;;;;;;;53.95;24.38;;;;;;;2.56;80.25;100900.94;3565225;40;20041;-64
2022/12/11 01:26:22;;;;;;;56.35;25.65;;;;;;;2.58;80.51;100915.06;3576778;40;20072;-63
2022/12/11 01:28:51;;;;;;;52.10;26.40;;;;;;;2.38;80.58;100873.16;3575097;40;20383;-64
2022/12/11 01:31:19;;;;;;;50.20;22.42;;;;;;;2.60;80.79;100915.00;3577863;40;20060;-64
2022/12/11 01:33:45;;;;;;;49.15;23.23;;;;;;;2.62;79.85;100908.75;3575147;40;20187;-63
2022/12/11 01:36:19;;;;;;;52.05;24.00;;;;;;;2.67;79.93;100912.16;3573508;40;20064;-64
2022/12/11 01:38:47;;;;;;;50.95;23.67;;;;;;;2.66;80.29;100909.53;3573032;40;20063;-65
2022/12/11 01:41:13;;;;;;;51.90;24.20;;;;;;;2.64;79.94;100903.41;3579982;40;20064;-64
2022/12/11 01:44:15;;;;;;;46.15;23.05;;;;;;;2.65;80.40;100907.78;3577683;40;20060;-64
2022/12/11 01:46:42;;;;;;;47.33;22.27;;;;;;;2.64;79.47;100903.41;3529229;40;20055;-64
2022/12/11 01:49:14;;;;;;;52.10;22.80;;;;;;;2.63;80.75;100901.63;3570905;40;20056;-64
2022/12/11 01:51:48;;;;;;;43.70;22.33;;;;;;;2.65;80.07;100889.22;3580205;40;20052;-63
2022/12/11 01:54:19;;;;;;;49.22;22.48;;;;;;;2.65;79.94;100897.19;3581104;40;20138;-64
2022/12/11 01:56:49;;;;;;;47.05;23.80;;;;;;;2.63;80.10;100880.41;3581511;40;20362;-63
2022/12/11 01:59:23;;;;;;;47.22;23.08;;;;;;;2.66;79.90;100886.50;3586040;40;20738;-64
2022/12/11 02:02:13;;;;;;;49.03;22.08;;;;;;;2.67;80.30;100884.75;3575470;40;20481;-64
2022/12/11 02:04:44;;;;;;;49.58;22.25;;;;;;;2.67;80.23;100885.59;3576452;40;20052;-64
2022/12/11 02:07:09;;;;;;;47.47;22.80;;;;;;;2.69;79.87;100882.91;3579532;40;20053;-64
2022/12/11 02:09:41;;;;;;;44.13;22.58;;;;;;;2.46;79.72;100841.09;3574336;40;20060;-64
2022/12/11 02:12:38;;;;;;;48.20;24.20;;;;;;;2.71;80.20;100891.69;3576429;40;20059;-64
2022/12/11 02:15:34;;;;;;;46.40;22.65;;;;;;;2.70;79.56;100889.97;3577441;40;20043;-64
2022/12/11 02:18:33;;;;;;;48.05;22.60;;;;;;;2.69;80.03;100888.19;3576686;40;20142;-64
2022/12/11 02:21:25;;;;;;;42.72;21.85;;;;;;;2.66;79.73;100894.47;3574657;40;20092;-63
2022/12/11 02:24:02;;;;;;;48.78;22.67;;;;;;;2.66;79.80;100888.28;3577869;40;20063;-64
2022/12/11 02:26:54;;;;;;;44.95;22.48;;;;;;;2.69;80.31;100882.91;3574941;40;20395;-64
2022/12/11 02:29:35;;;;;;;44.85;23.58;;;;;;;2.68;80.43;100883.81;3578412;40;20052;-64
2022/12/11 02:32:18;;;;;;;43.95;21.20;;;;;;;2.67;79.56;100880.31;3578707;40;20084;-63
2022/12/11 02:35:20;;;;;;;42.83;20.92;;;;;;;2.68;79.90;100875.84;3579850;40;20303;-64
2022/12/11 02:37:55;;;;;;;41.67;21.00;;;;;;;2.67;79.70;100880.31;3576169;40;20056;-64
2022/12/11 02:40:29;;;;;;;46.38;21.65;;;;;;;2.64;80.18;100871.56;3577517;40;20083;-64
2022/12/11 02:43:01;;;;;;;37.20;19.75;;;;;;;2.51;80.89;100858.63;3576193;40;20049;-64
2022/12/11 02:45:30;;;;;;;40.80;20.23;;;;;;;2.65;79.85;100875.94;3574091;40;20052;-64
2022/12/11 02:48:04;;;;;;;42.13;20.73;;;;;;;2.67;79.94;100884.75;3575804;40;20277;-64
2022/12/11 02:50:34;;;;;;;37.95;20.38;;;;;;;2.65;79.61;100878.59;3580318;40;20057;-64
2022/12/11 02:53:05;;;;;;;41.63;19.65;;;;;;;2.67;80.43;100884.75;3574028;40;20064;-64
2022/12/11 02:55:35;;;;;;;36.13;19.10;;;;;;;2.68;79.77;100882.03;3578003;40;20088;-64
2022/12/11 02:58:16;;;;;;;32.97;19.23;;;;;;;2.70;80.10;100884.66;3574490;40;20048;-64
2022/12/11 03:00:45;;;;;;;33.35;18.52;;;;;;;2.69;79.58;100883.75;3573606;40;20067;-64
2022/12/11 03:03:12;;;;;;;32.03;18.33;;;;;;;2.72;79.53;100885.47;3573902;40;20053;-64
2022/12/11 03:05:40;;;;;;;33.08;17.45;;;;;;;2.72;78.95;100880.16;3577939;40;20060;-64
2022/12/11 03:08:06;;;;;;;32.10;17.55;;;;;;;2.72;79.72;100875.72;3575434;40;20052;-64
2022/12/11 03:10:32;;;;;;;31.25;16.60;;;;;;;2.72;78.86;100872.19;3574851;40;20057;-64
2022/12/11 03:13:00;;;;;;;27.58;17.60;;;;;;;2.68;78.27;100865.25;3574763;40;20072;-64
2022/12/11 03:16:07;;;;;;;26.60;16.05;;;;;;;2.72;78.54;100857.13;3572380;40;20063;-64
2022/12/11 03:19:00;;;;;;;26.25;15.98;;;;;;;2.73;77.96;100858.03;3561603;40;20056;-64
2022/12/11 03:21:42;;;;;;;25.98;14.40;;;;;;;2.73;77.92;100863.34;3572303;40;20854;-64
2022/12/11 03:24:29;;;;;;;26.92;14.60;;;;;;;2.71;77.99;100863.38;3579384;40;20055;-64
2022/12/11 03:27:06;;;;;;;26.45;15.18;;;;;;;2.68;78.17;100865.25;3576592;40;20118;-64
2022/12/11 03:29:50;;;;;;;24.05;14.38;;;;;;;2.66;78.67;100870.56;3575147;40;20096;-64
2022/12/11 03:32:26;;;;;;;23.05;14.30;;;;;;;2.66;77.80;100861.75;3574337;40;20067;-64
2022/12/11 03:35:07;;;;;;;22.35;13.35;;;;;;;2.63;77.75;100867.16;3576682;40;20053;-64
2022/12/11 03:37:39;;;;;;;23.58;13.52;;;;;;;2.55;78.43;100851.44;3577129;40;20060;-64
2022/12/11 03:40:15;;;;;;;24.35;14.10;;;;;;;2.63;77.51;100859.19;3579283;40;20052;-64
2022/12/11 03:42:48;;;;;;;21.90;13.38;;;;;;;2.63;77.67;100859.19;3578800;40;20092;-64
2022/12/11 03:45:19;;;;;;;22.70;13.68;;;;;;;2.62;78.21;100857.44;3575819;40;20082;-64
2022/12/11 03:47:46;;;;;;;22.92;13.93;;;;;;;2.60;77.66;100849.56;3577551;40;20060;-64
2022/12/11 03:50:17;;;;;;;22.38;13.70;;;;;;;2.61;77.63;100845.09;3577867;40;20044;-64
2022/12/11 03:52:46;;;;;;;23.50;13.75;;;;;;;2.63;77.91;100848.56;3572840;40;20041;-64
2022/12/11 03:55:18;;;;;;;24.85;13.85;;;;;;;2.59;77.61;100844.28;3572014;40;20311;-63
2022/12/11 03:57:44;;;;;;;23.27;14.63;;;;;;;2.51;78.07;100823.28;3578868;40;20062;-64
2022/12/11 04:00:18;;;;;;;26.13;14.70;;;;;;;2.61;78.40;100826.53;3574180;40;20085;-64
2022/12/11 04:03:11;;;;;;;24.38;13.93;;;;;;;2.52;78.23;100812.59;3573055;40;20048;-65
2022/12/11 04:05:31;;;;;;;22.35;13.70;;;;;;;2.66;77.39;100829.91;3579337;40;20052;-64
2022/12/11 04:07:56;;;;;;;24.30;14.73;;;;;;;2.67;77.50;100837.84;3573244;40;20067;-64
2022/12/11 04:10:23;;;;;;;24.65;14.40;;;;;;;2.56;76.83;100814.25;3574893;40;20123;-64
2022/12/11 04:12:49;;;;;;;26.05;14.13;;;;;;;2.70;76.77;100832.44;3576479;40;20049;-64
2022/12/11 04:15:14;;;;;;;24.85;14.98;;;;;;;2.72;77.60;100843.84;3579654;40;20055;-64
2022/12/11 04:26:12;;;;;;;21.63;13.27;;;;;;;2.78;76.15;100834.84;3579368;40;20067;-64
2022/12/11 04:28:39;;;;;;;21.13;13.70;;;;;;;2.78;76.61;100833.06;3577012;40;20173;-64
2022/12/11 04:31:05;;;;;;;23.08;13.93;;;;;;;2.78;76.30;100832.19;3580572;40;20374;-64
2022/12/11 04:33:30;;;;;;;22.15;14.15;;;;;;;2.75;76.96;100824.31;3578621;40;20055;-64
2022/12/11 04:35:58;;;;;;;21.85;13.65;;;;;;;2.77;76.74;100823.38;3576552;40;20395;-64
2022/12/11 04:38:25;;;;;;;21.65;13.23;;;;;;;2.77;76.84;100826.03;3572734;40;20104;-64
2022/12/11 04:41:03;;;;;;;22.60;14.10;;;;;;;2.77;76.55;100825.16;3572874;40;20149;-64
2022/12/11 04:43:29;;;;;;;21.60;14.10;;;;;;;2.78;76.87;100818.94;3577201;40;20064;-64
2022/12/11 04:46:19;;;;;;;25.42;14.73;;;;;;;2.77;76.88;100825.16;3573232;40;20127;-64
2022/12/11 04:48:46;;;;;;;27.25;13.95;;;;;;;2.43;77.06;100770.41;3581064;40;20066;-63
2022/12/11 04:51:13;;;;;;;23.73;14.65;;;;;;;2.69;76.57;100819.19;3577157;40;20052;-65
2022/12/11 04:53:39;;;;;;;25.05;14.75;;;;;;;2.72;76.55;100824.41;3571687;40;20064;-65
2022/12/11 04:56:08;;;;;;;22.23;14.50;;;;;;;2.69;76.64;100822.72;3577305;40;20134;-65
2022/12/11 04:58:35;;;;;;;23.55;14.73;;;;;;;2.73;77.07;100820.88;3572717;40;20051;-64
2022/12/11 05:01:18;;;;;;;24.08;14.90;;;;;;;2.75;76.78;100822.53;3572749;40;20118;-66
2022/12/11 05:03:44;;;;;;;21.33;14.07;;;;;;;2.76;76.29;100815.47;3569493;40;20055;-65
2022/12/11 05:06:11;;;;;;;23.42;14.43;;;;;;;2.65;77.21;100802.50;3581593;40;20093;-64
2022/12/11 05:08:41;;;;;;;23.42;14.75;;;;;;;2.70;76.73;100810.34;3572204;40;20060;-64
2022/12/11 05:11:11;;;;;;;25.60;14.75;;;;;;;2.70;76.75;100808.56;3572683;40;20061;-64
2022/12/11 05:13:38;;;;;;;23.08;14.50;;;;;;;2.48;76.11;100773.81;3573994;40;20078;-64
2022/12/11 05:16:05;;;;;;;25.90;14.43;;;;;;;2.72;76.08;100813.81;3575887;40;20052;-64
2022/12/11 05:18:31;;;;;;;28.05;15.23;;;;;;;2.71;76.58;100818.25;3574085;40;20123;-66
2022/12/11 05:21:04;;;;;;;23.48;15.30;;;;;;;2.71;76.00;100812.06;3574172;40;20100;-64
2022/12/11 05:23:30;;;;;;;26.27;15.47;;;;;;;2.72;75.93;100806.69;3581446;40;20391;-65
2022/12/11 05:26:00;;;;;;;23.85;15.05;;;;;;;2.73;75.54;100807.59;3575621;40;20408;-65
2022/12/11 05:28:31;;;;;;;27.30;15.38;;;;;;;2.74;76.32;100804.03;3575961;40;20380;-64
2022/12/11 05:31:07;;;;;;;22.50;14.57;;;;;;;2.70;75.49;100795.28;3577409;40;20052;-65
2022/12/11 05:33:34;;;;;;;22.13;14.15;;;;;;;2.61;75.06;100784.06;3576290;40;20064;-64
2022/12/11 05:36:01;;;;;;;22.48;14.05;;;;;;;2.74;75.13;100806.69;3577271;40;20086;-72
2022/12/11 05:38:27;;;;;;;22.55;13.57;;;;;;;2.72;73.99;100801.41;3575595;40;20375;-65
2022/12/11 05:41:02;;;;;;;22.58;13.65;;;;;;;2.75;74.31;100803.09;3579354;40;20059;-65
2022/12/11 05:43:32;;;;;;;23.13;14.13;;;;;;;2.70;75.12;100795.28;3576972;40;20060;-65
2022/12/11 05:46:12;;;;;;;22.80;13.88;;;;;;;2.73;74.13;100799.63;3576001;40;20381;-64
2022/12/11 05:48:40;;;;;;;21.17;13.00;;;;;;;2.75;74.90;100811.91;3580723;40;20059;-64
2022/12/11 05:51:07;;;;;;;21.80;13.43;;;;;;;2.78;74.38;100808.31;3573911;40;20146;-65
2022/12/11 05:53:36;;;;;;;19.83;13.15;;;;;;;2.79;74.94;100815.34;3574423;40;20517;-64
2022/12/11 05:56:10;;;;;;;22.05;13.20;;;;;;;2.79;73.71;100807.38;3580726;40;20059;-65
2022/12/11 05:58:37;;;;;;;24.20;13.15;;;;;;;2.80;75.21;100814.47;3575447;40;20053;-64
2022/12/11 06:01:13;;;;;;;21.15;12.63;;;;;;;2.76;73.91;100804.84;3578125;40;20056;-63
2022/12/11 06:03:38;;;;;;;23.45;13.50;;;;;;;2.62;73.84;100785.81;3578309;40;20543;-65
2022/12/11 06:06:06;;;;;;;21.98;13.57;;;;;;;2.70;74.55;100794.41;3579639;40;20059;-64
2022/12/11 06:08:33;;;;;;;21.75;13.07;;;;;;;2.81;74.39;100812.66;3576379;40;20544;-64
2022/12/11 06:10:59;;;;;;;22.42;13.23;;;;;;;2.80;73.79;100811.81;3576084;40;20057;-63
2022/12/11 06:13:25;;;;;;;20.73;12.75;;;;;;;2.79;74.17;100810.03;3577067;40;20057;-64
2022/12/11 06:15:51;;;;;;;22.13;13.32;;;;;;;2.78;74.67;100813.63;3574622;40;20316;-63
2022/12/11 06:18:17;;;;;;;23.58;13.52;;;;;;;2.80;74.00;100809.16;3575947;40;20084;-63
2022/12/11 06:20:43;;;;;;;22.60;13.20;;;;;;;2.80;74.10;100809.16;3576848;40;20071;-62
2022/12/11 06:23:09;;;;;;;21.38;13.70;;;;;;;2.79;73.46;100813.59;3577970;40;20462;-64
2022/12/11 06:25:38;;;;;;;21.65;13.27;;;;;;;2.82;73.85;100807.28;3580503;40;20049;-63
2022/12/11 06:28:04;;;;;;;24.35;14.52;;;;;;;2.84;73.72;100808.13;3577454;40;20062;-63
2022/12/11 06:30:29;;;;;;;23.73;14.82;;;;;;;2.87;73.63;100808.03;3578068;40;20071;-63
2022/12/11 06:32:58;;;;;;;22.98;14.38;;;;;;;2.85;74.10;100804.56;3579517;40;20060;-64
2022/12/11 06:35:24;;;;;;;24.27;15.27;;;;;;;2.89;73.38;100811.53;3577336;40;20403;-63
2022/12/11 06:37:49;;;;;;;22.45;14.25;;;;;;;2.86;73.60;100805.44;3577535;40;20378;-64
2022/12/11 06:40:15;;;;;;;22.83;14.75;;;;;;;2.87;74.21;100812.47;3579214;40;20151;-64
2022/12/11 06:42:41;;;;;;;21.63;15.10;;;;;;;2.87;74.33;100808.03;3574767;40;20056;-64
2022/12/11 06:45:07;;;;;;;22.30;13.55;;;;;;;2.84;73.32;100810.78;3574603;40;20045;-64
2022/12/11 06:47:33;;;;;;;21.55;13.55;;;;;;;2.84;74.05;100805.47;3583576;40;20067;-63
2022/12/11 06:49:59;;;;;;;18.77;12.52;;;;;;;2.83;74.06;100808.19;3581108;40;20048;-63
2022/12/11 06:52:28;;;;;;;21.17;13.30;;;;;;;2.85;73.96;100803.69;3578408;40;20064;-63
2022/12/11 06:54:55;;;;;;;29.13;16.60;;;;;;;2.88;73.16;100798.28;3578615;40;20055;-62
2022/12/11 06:57:22;;;;;;;28.73;16.77;;;;;;;2.30;73.83;100700.09;3576272;40;20063;-63
2022/12/11 06:59:48;;;;;;;26.45;15.75;;;;;;;2.87;73.85;100808.03;3578694;40;20122;-64
2022/12/11 07:02:17;;;;;;;31.48;18.65;;;;;;;2.82;73.30;100794.03;3577913;40;20064;-65
2022/12/11 07:04:43;;;;;;;32.90;19.02;;;;;;;2.79;74.23;100789.69;3576662;40;20370;-63
2022/12/11 07:07:10;;;;;;;33.42;19.83;;;;;;;2.82;73.60;100804.63;3577412;40;20055;-64
2022/12/11 07:09:39;;;;;;;30.42;18.88;;;;;;;2.84;74.09;100808.13;3574495;40;20075;-64
2022/12/11 07:12:06;;;;;;;36.28;20.88;;;;;;;2.86;73.77;100816.06;3574817;40;20060;-63
2022/12/11 07:14:32;;;;;;;26.67;16.85;;;;;;;2.86;73.67;100813.41;3577705;40;20540;-62
2022/12/11 07:16:59;;;;;;;30.73;17.67;;;;;;;2.79;73.76;100800.31;3578241;40;20466;-63
2022/12/11 07:19:25;;;;;;;23.95;15.30;;;;;;;2.88;73.08;100819.53;3576351;40;20053;-63
2022/12/11 07:21:51;;;;;;;23.20;15.27;;;;;;;2.89;72.97;100819.50;3575683;40;20052;-63
2022/12/11 07:24:17;;;;;;;23.65;15.20;;;;;;;2.78;73.46;100803.88;3576590;40;20072;-63
2022/12/11 07:26:42;;;;;;;19.85;12.52;;;;;;;2.91;73.22;100825.59;3576656;40;20057;-63
2022/12/11 07:29:08;;;;;;;21.05;12.85;;;;;;;2.91;72.70;100825.59;3579619;40;20059;-63
2022/12/11 07:31:34;;;;;;;21.52;13.02;;;;;;;2.85;72.95;100815.16;3576169;40;20060;-63
2022/12/11 07:34:04;;;;;;;23.65;14.13;;;;;;;2.91;73.52;100836.22;3576830;40;20091;-64
2022/12/11 07:36:32;;;;;;;27.27;14.80;;;;;;;2.90;73.57;100823.88;3577553;40;20091;-64
2022/12/11 07:38:59;;;;;;;25.48;15.68;;;;;;;2.91;72.73;100825.59;3576218;40;20413;-63
2022/12/11 07:41:27;;;;;;;20.55;13.00;;;;;;;2.86;72.78;100824.91;3575736;40;20052;-62
2022/12/11 07:43:54;;;;;;;23.60;14.30;;;;;;;2.83;72.66;100826.78;3577446;40;20064;-63
2022/12/11 07:46:27;;;;;;;23.40;15.20;;;;;;;2.83;73.33;100827.63;3576605;40;20048;-63
2022/12/11 07:48:53;;;;;;;22.05;14.43;;;;;;;2.87;72.95;100823.09;3576820;40;20055;-63
2022/12/11 07:51:28;;;;;;;24.85;15.52;;;;;;;2.87;73.15;100828.41;3577321;40;20117;-63
2022/12/11 07:54:01;;;;;;;25.25;14.65;;;;;;;2.82;73.11;100825.88;3575316;40;20055;-63
2022/12/11 07:56:29;;;;;;;27.92;16.17;;;;;;;2.83;73.38;100822.31;3579354;40;20053;-64
2022/12/11 07:58:55;;;;;;;23.73;14.30;;;;;;;2.87;73.62;100828.41;3573275;40;20121;-63
2022/12/11 08:01:25;;;;;;;22.58;14.63;;;;;;;2.88;73.11;100825.69;3577716;40;20078;-63
2022/12/11 08:03:52;;;;;;;27.20;15.60;;;;;;;2.89;73.83;100816.84;3577931;40;20063;-64
2022/12/11 08:06:23;;;;;;;25.08;15.15;;;;;;;2.93;72.88;100826.44;3576385;40;20060;-62
2022/12/11 08:08:49;;;;;;;26.88;16.45;;;;;;;2.89;73.71;100822.16;3577355;40;20061;-63
2022/12/11 08:11:14;;;;;;;25.75;14.88;;;;;;;2.88;73.27;100831.00;3575291;40;20064;-63
2022/12/11 08:13:43;;;;;;;25.33;14.68;;;;;;;2.84;73.49;100818.75;3578766;40;20425;-63
2022/12/11 08:16:13;;;;;;;25.63;14.52;;;;;;;2.89;73.59;100827.47;3577370;40;20064;-64
2022/12/11 08:18:40;;;;;;;24.38;15.05;;;;;;;2.86;74.00;100832.00;3579594;40;20299;-64
2022/12/11 08:21:12;;;;;;;26.80;15.55;;;;;;;2.81;73.56;100816.19;3576052;40;20068;-64
2022/12/11 08:23:38;;;;;;;26.08;14.45;;;;;;;2.80;73.19;100819.75;3576618;40;20399;-64
2022/12/11 08:26:06;;;;;;;24.67;15.55;;;;;;;2.81;73.33;100820.63;3569755;40;20056;-64
2022/12/11 08:28:33;;;;;;;26.70;14.43;;;;;;;2.61;73.05;100795.56;3576423;40;20099;-64
2022/12/11 08:30:58;;;;;;;26.25;14.07;;;;;;;2.79;73.33;100831.28;3579222;40;20049;-63
2022/12/11 08:33:25;;;;;;;23.67;14.52;;;;;;;2.76;73.89;100823.44;3578111;40;20103;-63
2022/12/11 08:35:51;;;;;;;26.08;14.93;;;;;;;2.79;73.81;100824.22;3579136;40;20163;-63
2022/12/11 08:38:16;;;;;;;26.38;14.70;;;;;;;2.78;73.77;100832.19;3577659;40;20100;-63
2022/12/11 08:40:42;;;;;;;25.52;15.45;;;;;;;2.77;73.89;100825.16;3569070;40;20053;-64
2022/12/11 08:43:07;;;;;;;25.27;14.88;;;;;;;2.80;72.87;100835.69;3575109;40;20060;-64
2022/12/11 08:45:33;;;;;;;27.27;15.45;;;;;;;2.83;73.14;100824.97;3574995;40;20418;-63
2022/12/11 08:47:59;;;;;;;24.85;14.07;;;;;;;2.05;73.19;100698.16;3576326;40;20064;-63
2022/12/11 08:50:24;;;;;;;27.27;15.63;;;;;;;2.86;73.62;100826.69;3574627;40;20057;-64
2022/12/11 08:52:50;;;;;;;26.92;14.70;;;;;;;2.85;73.80;100815.16;3575039;40;20060;-64
2022/12/11 08:55:16;;;;;;;23.88;14.25;;;;;;;2.62;73.29;100784.00;3575455;40;20177;-64
2022/12/11 08:57:42;;;;;;;24.35;14.13;;;;;;;2.85;73.15;100815.16;3577587;40;20118;-64
2022/12/11 09:00:11;;;;;;;23.55;14.20;;;;;;;2.86;72.98;100816.94;3574662;40;20071;-64
2022/12/11 09:02:37;;;;;;;26.45;14.77;;;;;;;2.87;73.94;100823.97;3576926;40;20867;-65
2022/12/11 09:05:06;;;;;;;24.30;13.60;;;;;;;2.85;73.81;100816.97;3567529;40;20489;-64
2022/12/11 09:07:33;;;;;;;23.98;14.10;;;;;;;2.88;72.97;100817.72;3575505;40;20137;-64
2022/12/11 09:09:59;;;;;;;25.25;15.18;;;;;;;2.90;72.84;100818.56;3578208;40;20048;-64
2022/12/11 09:12:26;;;;;;;24.52;14.60;;;;;;;2.89;71.98;100816.84;3576579;40;20041;-64
2022/12/11 09:14:52;;;;;;;26.88;14.43;;;;;;;2.86;73.14;100816.94;3573437;40;20087;-65
2022/12/11 09:17:17;;;;;;;24.02;14.20;;;;;;;2.84;72.62;100820.53;3574250;40;20072;-65
2022/12/11 09:19:43;;;;;;;24.88;14.25;;;;;;;2.87;73.25;100820.44;3573803;40;20068;-65
2022/12/11 09:22:10;;;;;;;23.60;13.85;;;;;;;2.83;73.39;100811.72;3573887;40;20062;-64
2022/12/11 09:24:36;;;;;;;26.45;14.65;;;;;;;2.84;72.45;100818.75;3576438;40;20056;-64
2022/12/11 09:27:04;;;;;;;26.80;14.90;;;;;;;2.80;73.52;100817.13;3574806;40;20049;-64
2022/12/11 09:29:29;;;;;;;25.52;15.10;;;;;;;2.81;73.31;100812.66;3577287;40;20056;-64
2022/12/11 09:31:55;;;;;;;26.77;15.07;;;;;;;1.95;73.62;100672.81;3575334;40;20100;-64
2022/12/11 09:34:21;;;;;;;29.02;17.15;;;;;;;2.88;73.51;100820.38;3574155;40;20338;-64
2022/12/11 09:36:46;;;;;;;26.52;15.50;;;;;;;2.93;73.19;100817.59;3578359;40;20078;-64
2022/12/11 09:39:15;;;;;;;28.27;15.32;;;;;;;2.88;72.50;100809.75;3577904;40;20475;-64
2022/12/11 09:41:57;;;;;;;25.67;14.93;;;;;;;2.88;73.75;100809.75;3576839;40;20051;-64
2022/12/11 09:44:53;;;;;;;26.52;14.45;;;;;;;2.84;73.20;100809.91;3575579;40;20100;-64
2022/12/11 09:47:30;;;;;;;25.55;14.38;;;;;;;2.83;72.86;100809.06;3578211;40;20059;-64
2022/12/11 09:50:10;;;;;;;23.77;14.45;;;;;;;2.82;73.83;100807.28;3577769;40;20089;-64
2022/12/11 09:52:55;;;;;;;23.00;13.68;;;;;;;2.81;73.26;100807.34;3574632;40;20107;-64
2022/12/11 09:55:28;;;;;;;25.13;13.88;;;;;;;2.84;72.86;100809.91;3577634;40;20096;-64
2022/12/11 09:57:57;;;;;;;23.80;14.75;;;;;;;2.81;73.09;100800.25;3576980;40;20057;-64
2022/12/11 10:00:40;;;;;;;27.30;13.82;;;;;;;2.81;72.95;100797.59;3574183;40;20657;-64
2022/12/11 10:03:37;;;;;;;24.10;13.77;;;;;;;2.85;72.72;100801.91;3575315;40;20092;-64
2022/12/11 10:07:02;;;;;;;25.65;14.43;;;;;;;2.86;73.02;100801.00;3575400;40;20084;-64
2022/12/11 10:10:01;;;;;;;23.30;13.88;;;;;;;2.87;73.39;100802.72;3558227;40;20556;-64
2022/12/11 10:12:56;;;;;;;24.83;13.77;;;;;;;2.84;73.97;100788.69;3574908;40;20618;-64
2022/12/11 10:15:52;;;;;;;30.60;15.95;;;;;;;2.91;73.39;100795.53;3575273;40;20058;-64
2022/12/11 10:18:25;;;;;;;25.95;13.60;;;;;;;2.87;73.14;100791.25;3577476;40;20044;-64
2022/12/11 10:20:53;;;;;;;48.03;25.63;;;;;;;2.91;73.40;100803.50;3576198;40;20431;-64
2022/12/11 10:23:34;;;;;;;38.13;22.67;;;;;;;2.94;73.31;100803.41;3578899;40;20127;-64
2022/12/11 10:26:17;;;;;;;27.73;16.15;;;;;;;2.93;72.88;100805.19;3580235;40;20364;-64
2022/12/11 10:28:43;;;;;;;27.60;16.02;;;;;;;2.94;73.61;100798.97;3578553;40;20111;-63
2022/12/11 10:31:23;;;;;;;28.52;16.67;;;;;;;2.98;73.05;100803.28;3577552;40;20292;-64
2022/12/11 10:34:07;;;;;;;29.42;18.33;;;;;;;2.86;72.86;100779.75;3576179;40;20064;-64
2022/12/11 10:36:40;;;;;;;28.20;14.65;;;;;;;3.00;73.67;100809.41;3576189;40;20390;-64
2022/12/11 10:39:19;;;;;;;22.83;13.20;;;;;;;2.99;73.18;100794.38;3574363;40;20134;-64
2022/12/11 10:41:54;;;;;;;27.50;14.10;;;;;;;3.00;72.79;100793.47;3576656;40;20280;-64
2022/12/11 10:44:27;;;;;;;24.30;13.35;;;;;;;3.04;72.44;100780.94;3576600;40;20303;-64
2022/12/11 10:47:12;;;;;;;25.38;13.52;;;;;;;3.01;72.72;100786.34;3578815;40;20068;-64
2022/12/11 10:49:50;;;;;;;23.70;13.40;;;;;;;3.06;72.81;100794.19;3576571;40;20108;-64
2022/12/11 10:52:26;;;;;;;24.08;13.38;;;;;;;3.02;72.23;100786.34;3578712;40;20075;-64
2022/12/11 10:55:18;;;;;;;27.77;13.70;;;;;;;3.02;73.12;100783.69;3575858;40;20353;-64
2022/12/11 10:58:00;;;;;;;25.77;14.15;;;;;;;2.98;72.62;100784.69;3575364;40;20052;-64
2022/12/11 11:00:39;;;;;;;28.40;14.63;;;;;;;3.05;72.21;100773.88;3577091;40;20058;-63
2022/12/11 11:03:23;;;;;;;26.27;13.18;;;;;;;3.10;72.74;100782.56;3566622;40;20056;-63
2022/12/11 11:05:49;;;;;;;28.00;14.75;;;;;;;3.14;72.36;100779.78;3576810;40;20068;-63
2022/12/11 11:08:22;;;;;;;30.33;15.88;;;;;;;3.14;72.33;100771.81;3579719;40;20052;-64
2022/12/11 11:10:55;;;;;;;25.63;13.45;;;;;;;3.17;71.54;100768.16;3576390;40;20080;-64
2022/12/11 11:13:28;;;;;;;24.17;13.50;;;;;;;3.21;71.79;100767.16;3575555;40;20300;-64
2022/12/11 11:16:12;;;;;;;27.17;14.45;;;;;;;3.21;70.94;100770.69;3576095;40;20090;-63
2022/12/11 11:18:42;;;;;;;22.45;13.35;;;;;;;3.12;71.19;100748.88;3577569;40;20431;-63
2022/12/11 11:21:23;;;;;;;26.85;13.90;;;;;;;3.21;71.55;100761.84;3578157;40;20471;-64
2022/12/11 11:23:52;;;;;;;35.17;20.35;;;;;;;3.30;71.18;100768.63;3578761;40;20394;-63
2022/12/11 11:26:23;;;;;;;28.17;14.95;;;;;;;3.31;71.39;100762.41;3580222;40;20153;-63
2022/12/11 11:28:56;;;;;;;29.40;15.20;;;;;;;3.37;71.79;100760.41;3578364;40;20415;-63
2022/12/11 11:31:34;;;;;;;24.50;14.17;;;;;;;3.46;71.73;100770.75;3577232;40;20311;-64
2022/12/11 11:34:07;;;;;;;29.10;14.45;;;;;;;3.52;72.24;100763.47;3578491;40;20339;-63
2022/12/11 11:36:36;;;;;;;22.95;13.18;;;;;;;3.53;70.89;100765.22;3579773;40;20409;-63
2022/12/11 11:39:49;;;;;;;22.85;14.05;;;;;;;3.55;70.21;100758.06;3579651;40;20060;-64
2022/12/11 11:42:32;;;;;;;22.45;13.20;;;;;;;3.63;70.53;100761.31;3576490;40;20062;-63
2022/12/11 11:45:50;;;;;;;23.50;13.50;;;;;;;3.66;69.84;100755.91;3576931;40;20052;-63
2022/12/11 11:48:42;;;;;;;22.50;12.98;;;;;;;3.70;70.60;100753.06;3565263;40;20059;-63